tititudorancea.com
Station Historical Data
Daily Summary for February 12, 2019 Units:  Metric    English   Both
« Previous Day
Next Day »
Daily Weekly Monthly Yearly Custom
  High: Low: Average:
Temperature: -17.8 °C 10.3 °C 14.7 °C
Dew Point: -17.8 °C 1.1 °C 7.9 °C
Humidity: Humidity % 36 % 66 %
Wind Speed: 0 km/h 4.8 km/h 18.7 km/h
Wind Gust: 0 km/h - -
Wind:- - West
Pressure: 0 hPa 991.4 hPa -
Precipitation: 1.52 mm    
Historical Graphs
 
 
Ararat weather Find more about Weather in Ararat, AU


 



 


Tabular Data for February 12, 2019
Time Temperature Dew Point Pressure Wind Wind Speed Wind Gust Humidity Rainfall Rate (Hourly)
-17.8 °C -17.8 °C 0 hPa Calm     Humidity % 0 mm
00:04 17.5 °C 12.6 °C 995.8 hPa NW 13 km/h 6.1 km/h 73 % 0 mm
00:09 17.5 °C 12.6 °C 995.8 hPa WNW 20.4 km/h 10.5 km/h 73 % 0 mm
00:14 17.5 °C 12.4 °C 995.8 hPa NW 16.7 km/h 6.4 km/h 72 % 0 mm
00:19 17.4 °C 12.3 °C 995.8 hPa NW 18.5 km/h 9.7 km/h 72 % 0 mm
00:24 17.4 °C 12.3 °C 995.8 hPa NW 37 km/h 26.4 km/h 72 % 0 mm
00:29 17.5 °C 12.2 °C 995.8 hPa NW 24.1 km/h 14.2 km/h 71 % 0 mm
00:34 17.5 °C 12.2 °C 995.5 hPa NNW 18.5 km/h 13.7 km/h 71 % 0 mm
00:39 17.4 °C 12.1 °C 995.8 hPa NW 25.7 km/h 16.7 km/h 71 % 0 mm
00:44 17.3 °C 12 °C 995.5 hPa NW 18.5 km/h 8.9 km/h 71 % 0 mm
00:49 17.2 °C 11.9 °C 995.5 hPa NW 25.9 km/h 13 km/h 71 % 0 mm
00:54 17.2 °C 11.9 °C 995.5 hPa NW 31.5 km/h 14.2 km/h 71 % 0 mm
00:59 17.2 °C 12.1 °C 995.5 hPa NW 31.5 km/h 21.6 km/h 72 % 0 mm
01:04 17.1 °C 12 °C 995.1 hPa NW 17.7 km/h 14.3 km/h 72 % 0 mm
01:09 16.9 °C 11.8 °C 995.1 hPa NW 20.4 km/h 11.7 km/h 72 % 0 mm
01:14 16.9 °C 12 °C 995.1 hPa NW 24.1 km/h 15.1 km/h 73 % 0 mm
01:19 16.8 °C 11.9 °C 995.1 hPa NW 18.5 km/h 8.7 km/h 73 % 0 mm
01:24 16.8 °C 11.9 °C 995.1 hPa NW 11.1 km/h 4.7 km/h 73 % 0 mm
01:29 16.7 °C 11.8 °C 994.8 hPa NNW 11.1 km/h 10.9 km/h 73 % 0 mm
01:34 16.6 °C 11.7 °C 994.8 hPa NNW 11.1 km/h 4.8 km/h 73 % 0 mm
01:39 16.4 °C 11.8 °C 994.8 hPa NW 20.4 km/h 11.4 km/h 74 % 0 mm
01:44 16.4 °C 11.7 °C 994.5 hPa NW 13 km/h 6.9 km/h 74 % 0 mm
01:49 16.4 °C 11.7 °C 994.5 hPa NNW 16.7 km/h 8.4 km/h 74 % 0 mm
01:54 16.3 °C 11.6 °C 994.5 hPa NNW 11.1 km/h 9.3 km/h 74 % 0 mm
01:59 16.3 °C 11.8 °C 994.5 hPa NW 18.5 km/h 12.2 km/h 75 % 0 mm
02:04 16.3 °C 11.8 °C 994.5 hPa NW 22.2 km/h 9 km/h 75 % 0 mm
02:05 17.5 °C 12.6 °C 995.8 hPa WNW 11.3 km/h 17.7 km/h 73 % 0 mm
02:09 16.3 °C 11.8 °C 994.1 hPa NNW 16.1 km/h 11.9 km/h 75 % 0 mm
02:10 17.5 °C 12.6 °C 995.8 hPa NW 8 km/h 17.7 km/h 73 % 0 mm
02:14 16.3 °C 11.8 °C 994.1 hPa NNW 16.7 km/h 8.9 km/h 75 % 0 mm
02:15 17.5 °C 12.4 °C 995.8 hPa NW 12.9 km/h 25.7 km/h 72 % 0 mm
02:19 16.3 °C 11.9 °C 994.1 hPa NW 20.4 km/h 10.8 km/h 75 % 0 mm
02:20 17.5 °C 12.4 °C 995.8 hPa NW 9.7 km/h 19.3 km/h 72 % 0 mm
02:24 16.3 °C 11.8 °C 993.8 hPa North 18.5 km/h 12.6 km/h 75 % 0 mm
02:25 17.4 °C 12.6 °C 995.8 hPa NW 8 km/h 19.3 km/h 73 % 0 mm
02:29 16.2 °C 11.9 °C 993.8 hPa North 18.5 km/h 11.1 km/h 76 % 0 mm
02:30 17.4 °C 12.1 °C 995.8 hPa NW 16.1 km/h 37 km/h 71 % 0 mm
02:34 16.1 °C 12 °C 993.5 hPa North 14.8 km/h 7.6 km/h 77 % 0 mm
02:35 17.5 °C 12.2 °C 995.5 hPa NW 22.5 km/h 32.2 km/h 71 % 0 mm
02:39 15.9 °C 12.1 °C 993.5 hPa North 16.7 km/h 12.6 km/h 78 % 0 mm
02:40 17.4 °C 12.1 °C 995.5 hPa NW 14.5 km/h 22.5 km/h 71 % 0 mm
02:44 15.8 °C 12.2 °C 993.5 hPa North 18.5 km/h 9.3 km/h 79 % 0 mm
02:45 17.4 °C 12.1 °C 995.5 hPa NW 25.7 km/h 37 km/h 71 % 0 mm
02:49 15.7 °C 12.3 °C 993.1 hPa North 16.1 km/h 12.1 km/h 80 % 0 mm
02:50 17.3 °C 12 °C 995.5 hPa NW 19.3 km/h 29 km/h 71 % 0 mm
02:54 15.6 °C 12.2 °C 993.1 hPa NW 20.4 km/h 7.2 km/h 80 % 0 mm
02:55 17.2 °C 11.9 °C 995.5 hPa NW 16.1 km/h 32.2 km/h 71 % 0 mm
02:59 15.6 °C 12.3 °C 993.1 hPa North 16.1 km/h 6.3 km/h 81 % 0 mm
03:00 17.2 °C 11.9 °C 995.5 hPa NW 14.5 km/h 30.6 km/h 71 % 0 mm
03:04 15.6 °C 12.3 °C 993.1 hPa NNW 18.5 km/h 10.6 km/h 81 % 0 mm
03:05 17.2 °C 12.1 °C 995.5 hPa NW 14.5 km/h 32.2 km/h 72 % 0 mm
03:09 15.6 °C 12.3 °C 993.1 hPa NW 14.8 km/h 10.5 km/h 81 % 0 mm
03:10 17.1 °C 11.9 °C 995.1 hPa NW 14.5 km/h 24.1 km/h 72 % 0 mm
03:14 15.7 °C 12.4 °C 993.1 hPa WNW 22.2 km/h 10.9 km/h 81 % 0 mm
03:15 16.9 °C 11.8 °C 995.1 hPa NW 14.5 km/h 25.7 km/h 72 % 0 mm
03:19 15.8 °C 12.6 °C 992.8 hPa NW 18.5 km/h 13 km/h 81 % 0 mm
03:20 16.9 °C 12 °C 995.1 hPa NW 11.3 km/h 35.4 km/h 73 % 0 mm
03:24 15.9 °C 12.5 °C 992.8 hPa NW 18.5 km/h 12.2 km/h 80 % 0 mm
03:25 16.8 °C 11.9 °C 995.1 hPa WNW 14.5 km/h 27.4 km/h 73 % 0 mm
03:29 16 °C 12.3 °C 992.8 hPa NW 27.8 km/h 16.7 km/h 79 % 0 mm
03:30 16.7 °C 11.8 °C 994.8 hPa NW 11.3 km/h 22.5 km/h 73 % 0 mm
03:34 16 °C 12.3 °C 992.8 hPa NW 24.1 km/h 10 km/h 79 % 0 mm
03:35 16.6 °C 11.7 °C 994.8 hPa NW 11.3 km/h 17.7 km/h 73 % 0 mm
03:39 15.9 °C 12.3 °C 992.8 hPa NW 18.5 km/h 13.7 km/h 79 % 0 mm
03:40 16.5 °C 11.8 °C 994.8 hPa NNW 11.3 km/h 17.7 km/h 74 % 0 mm
03:44 15.9 °C 12.3 °C 992.4 hPa NW 24.1 km/h 16.4 km/h 79 % 0 mm
03:45 16.4 °C 11.8 °C 994.8 hPa NW 4.8 km/h 20.9 km/h 74 % 0 mm
03:49 15.9 °C 12.2 °C 992.4 hPa NW 25.9 km/h 13.2 km/h 79 % 0 mm
03:50 16.4 °C 11.7 °C 994.5 hPa NW 8 km/h 16.1 km/h 74 % 0 mm
03:54 15.8 °C 12.2 °C 992.4 hPa NNW 25.9 km/h 19.5 km/h 79 % 0 mm
03:55 16.4 °C 11.7 °C 994.5 hPa NW 8 km/h 19.3 km/h 74 % 0 mm
03:59 15.8 °C 12.2 °C 992.1 hPa NW 25.9 km/h 21.6 km/h 79 % 0 mm
04:00 16.3 °C 11.6 °C 994.5 hPa NW 8 km/h 16.1 km/h 74 % 0 mm
04:04 15.9 °C 12.2 °C 992.1 hPa North 22.2 km/h 20.1 km/h 79 % 0 mm
04:05 16.3 °C 11.8 °C 994.5 hPa NW 8 km/h 20.9 km/h 75 % 0 mm
04:09 15.9 °C 12.3 °C 992.1 hPa NNW 31.5 km/h 24.1 km/h 79 % 0 mm
04:10 16.3 °C 11.8 °C 994.1 hPa NW 8 km/h 22.5 km/h 75 % 0 mm
04:14 16 °C 12.3 °C 992.1 hPa NW 27.8 km/h 20 km/h 79 % 0 mm
04:15 16.3 °C 11.8 °C 994.1 hPa NW 14.5 km/h 24.1 km/h 75 % 0 mm
04:19 15.9 °C 12.3 °C 992.1 hPa NNW 24.1 km/h 18.7 km/h 79 % 0 mm
04:20 16.3 °C 11.8 °C 994.1 hPa NW 11.3 km/h 19.3 km/h 75 % 0 mm
04:24 15.9 °C 12.3 °C 992.1 hPa NNW 27.8 km/h 20.9 km/h 79 % 0 mm
04:25 16.3 °C 11.9 °C 994.1 hPa NW 8 km/h 22.5 km/h 75 % 0 mm
04:29 15.9 °C 12.5 °C 992.1 hPa NNW 22.2 km/h 13.5 km/h 80 % 0 mm
04:30 16.2 °C 11.8 °C 993.8 hPa NNW 4.8 km/h 19.3 km/h 75 % 0 mm
04:34 15.9 °C 12.4 °C 991.8 hPa NNW 20.4 km/h 17.2 km/h 80 % 0 mm
04:35 16.1 °C 11.9 °C 993.8 hPa North 11.3 km/h 20.9 km/h 76 % 0 mm
04:39 15.8 °C 12.5 °C 991.8 hPa NNW 22.2 km/h 10 km/h 81 % 0 mm
04:40 16 °C 11.9 °C 993.5 hPa North 11.3 km/h 16.1 km/h 77 % 0 mm
04:44 15.8 °C 12.5 °C 991.8 hPa NNW 18.5 km/h 15.8 km/h 81 % 0 mm
04:45 15.9 °C 12.1 °C 993.5 hPa North 8 km/h 17.7 km/h 78 % 0 mm
04:49 15.7 °C 12.4 °C 991.8 hPa NNW 27.8 km/h 18.7 km/h 81 % 0 mm
04:50 15.8 °C 12.2 °C 993.5 hPa North 14.5 km/h 17.7 km/h 79 % 0 mm
04:54 15.7 °C 12.4 °C 992.1 hPa NNW 31.5 km/h 19.2 km/h 81 % 0 mm
04:55 15.7 °C 12.2 °C 993.1 hPa North 4.8 km/h 17.7 km/h 80 % 0 mm
04:59 15.7 °C 12.4 °C 991.8 hPa NW 20.4 km/h 13.5 km/h 81 % 0 mm
05:00 15.6 °C 12.2 °C 993.1 hPa NNW 9.7 km/h 20.9 km/h 80 % 0 mm
05:04 15.7 °C 12.4 °C 991.8 hPa North 22.2 km/h 17.2 km/h 81 % 0 mm
05:05 15.6 °C 12.3 °C 993.1 hPa NNW 8 km/h 16.1 km/h 81 % 0 mm
05:09 15.7 °C 12.4 °C 991.8 hPa NNW 22.2 km/h 10.3 km/h 81 % 0 mm
05:10 15.6 °C 12.3 °C 993.1 hPa NNW 9.7 km/h 24.1 km/h 81 % 0 mm
05:14 15.7 °C 12.4 °C 991.8 hPa NNW 18.5 km/h 15.1 km/h 81 % 0 mm
05:15 15.7 °C 12.4 °C 993.1 hPa NW 11.3 km/h 22.5 km/h 81 % 0 mm
05:19 15.7 °C 12.4 °C 991.8 hPa NW 24.1 km/h 19.8 km/h 81 % 0 mm
05:20 15.8 °C 12.5 °C 993.1 hPa NW 14.5 km/h 24.1 km/h 81 % 0 mm
05:24 15.9 °C 12.2 °C 991.8 hPa NW 25.9 km/h 15 km/h 79 % 0 mm
05:25 15.9 °C 12.4 °C 993.1 hPa NW 16.1 km/h 25.7 km/h 80 % 0 mm
05:29 16.1 °C 12.4 °C 991.8 hPa NW 18.5 km/h 12.1 km/h 79 % 0 mm
05:30 15.9 °C 12.5 °C 992.8 hPa NW 19.3 km/h 32.2 km/h 80 % 0 mm
05:34 16 °C 12.3 °C 991.8 hPa NNW 24.1 km/h 9.3 km/h 79 % 0 mm
05:35 16 °C 12.3 °C 992.8 hPa NW 9.7 km/h 27.4 km/h 79 % 0 mm
05:39 16.1 °C 12.4 °C 991.8 hPa WNW 24.1 km/h 15.6 km/h 79 % 0 mm
05:40 15.9 °C 12.3 °C 992.8 hPa NW 16.1 km/h 24.1 km/h 79 % 0 mm
05:44 16.3 °C 12.2 °C 991.8 hPa NW 29.6 km/h 16.1 km/h 77 % 0 mm
05:45 15.9 °C 12.3 °C 992.8 hPa NW 16.1 km/h 25.7 km/h 79 % 0 mm
05:49 16.4 °C 12.3 °C 991.8 hPa NNW 22.2 km/h 17.4 km/h 77 % 0 mm
05:50 15.9 °C 12.3 °C 992.4 hPa NW 19.3 km/h 30.6 km/h 79 % 0 mm
05:54 16.4 °C 12.2 °C 991.8 hPa NW 25.9 km/h 14.5 km/h 76 % 0 mm
05:55 15.9 °C 12.2 °C 992.4 hPa NW 19.3 km/h 25.7 km/h 79 % 0 mm
05:59 16.4 °C 12.2 °C 991.8 hPa NNW 24.1 km/h 20.1 km/h 76 % 0 mm
06:00 15.8 °C 12.2 °C 992.4 hPa NW 11.3 km/h 29 km/h 79 % 0 mm
06:04 16.4 °C 12.3 °C 991.8 hPa NW 20.4 km/h 13.2 km/h 77 % 0 mm
06:05 15.8 °C 12.2 °C 992.1 hPa NW 22.5 km/h 30.6 km/h 79 % 0 mm
06:09 16.3 °C 12.3 °C 991.8 hPa NW 27.8 km/h 24.3 km/h 77 % 0 mm
06:10 15.9 °C 12.2 °C 992.4 hPa NW 20.9 km/h 35.4 km/h 79 % 0 mm
06:14 16.3 °C 12.5 °C 991.4 hPa NNW 18.5 km/h 13.4 km/h 78 % 0 mm
06:15 15.9 °C 12.3 °C 992.1 hPa NW 20.9 km/h 33.8 km/h 79 % 0 mm
06:19 16.2 °C 12.5 °C 991.8 hPa NW 24.1 km/h 16.9 km/h 79 % 0 mm
06:20 16 °C 12.3 °C 992.1 hPa NW 19.3 km/h 30.6 km/h 79 % 0 mm
06:24 15.9 °C 12.7 °C 991.8 hPa NW 25.9 km/h 15.3 km/h 81 % 0 mm
06:25 15.9 °C 12.3 °C 992.1 hPa NW 19.3 km/h 30.6 km/h 79 % 0 mm
06:29 15.6 °C 12.7 °C 991.8 hPa North 25.9 km/h 13 km/h 83 % 0.25 mm
06:30 15.9 °C 12.5 °C 992.1 hPa NNW 12.9 km/h 30.6 km/h 80 % 0 mm
06:34 15.3 °C 12.8 °C 992.1 hPa NW 18.5 km/h 14.2 km/h 85 % 0.51 mm
06:35 15.9 °C 12.4 °C 992.1 hPa NNW 12.9 km/h 24.1 km/h 80 % 0 mm
06:39 15.1 °C 12.9 °C 991.8 hPa NW 9.3 km/h 10.6 km/h 87 % 1.02 mm
06:40 15.8 °C 12.4 °C 991.8 hPa NNW 19.3 km/h 27.4 km/h 80 % 0 mm
06:44 14.9 °C 12.9 °C 992.1 hPa North 16.7 km/h 14.3 km/h 88 % 1.02 mm
06:45 15.8 °C 12.5 °C 991.8 hPa NNW 16.1 km/h 24.1 km/h 81 % 0 mm
06:49 14.9 °C 13.1 °C 992.1 hPa NW 13 km/h 9 km/h 89 % 1.02 mm
06:50 15.8 °C 12.5 °C 991.8 hPa NNW 19.3 km/h 30.6 km/h 81 % 0 mm
06:54 14.9 °C 13.1 °C 992.1 hPa NW 18.5 km/h 13.5 km/h 89 % 1.02 mm
06:55 15.7 °C 12.4 °C 991.8 hPa NNW 12.9 km/h 27.4 km/h 81 % 0 mm
06:59 15 °C 12.7 °C 992.1 hPa WNW 25.9 km/h 21.1 km/h 86 % 1.02 mm
07:00 15.7 °C 12.4 °C 992.1 hPa NNW 14.5 km/h 30.6 km/h 81 % 0 mm
07:04 15.3 °C 12.4 °C 992.1 hPa WNW 31.5 km/h 24.8 km/h 83 % 1.02 mm
07:05 15.7 °C 12.4 °C 991.8 hPa NW 12.9 km/h 22.5 km/h 81 % 0 mm
07:09 15.4 °C 12.2 °C 992.1 hPa NW 37 km/h 30.7 km/h 81 % 1.02 mm
07:10 15.7 °C 12.4 °C 991.8 hPa NNW 14.5 km/h 27.4 km/h 81 % 0 mm
07:14 15.6 °C 12.3 °C 992.1 hPa NW 18.5 km/h 15.1 km/h 81 % 1.02 mm
07:15 15.7 °C 12.4 °C 991.8 hPa NNW 12.9 km/h 22.5 km/h 81 % 0 mm
07:19 15.6 °C 12.3 °C 992.1 hPa NW 24.1 km/h 18.5 km/h 81 % 1.02 mm
07:20 15.7 °C 12.4 °C 991.8 hPa NNW 14.5 km/h 20.9 km/h 81 % 0 mm
07:24 15.6 °C 12.3 °C 992.1 hPa NW 18.5 km/h 12.1 km/h 81 % 1.02 mm
07:25 15.7 °C 12.3 °C 991.8 hPa NNW 14.5 km/h 29 km/h 80 % 0 mm
07:29 15.7 °C 12.3 °C 992.1 hPa NNW 25.9 km/h 15.4 km/h 80 % 0.76 mm
07:30 15.9 °C 12.3 °C 991.8 hPa NW 16.1 km/h 27.4 km/h 79 % 0 mm
07:34 15.8 °C 12 °C 992.1 hPa NW 31.5 km/h 11.7 km/h 78 % 0.51 mm
07:35 16.1 °C 12.4 °C 991.8 hPa NW 9.7 km/h 22.5 km/h 79 % 0 mm
07:39 15.9 °C 11.9 °C 992.1 hPa NW 31.5 km/h 12.1 km/h 77 % 0 mm
07:40 16 °C 12.3 °C 991.8 hPa NNW 14.5 km/h 25.7 km/h 79 % 0 mm
07:44 15.9 °C 11.9 °C 992.1 hPa WNW 20.4 km/h 8.5 km/h 77 % 0 mm
07:45 16.1 °C 12.3 °C 991.8 hPa NW 20.9 km/h 32.2 km/h 78 % 0 mm
07:49 15.9 °C 11.7 °C 992.1 hPa WNW 19.3 km/h 16.1 km/h 76 % 0 mm
07:50 16.3 °C 12.3 °C 991.8 hPa NW 22.5 km/h 29 km/h 77 % 0 mm
07:54 15.8 °C 11.4 °C 992.1 hPa WNW 14.8 km/h 9.5 km/h 75 % 0 mm
07:55 16.4 °C 12.2 °C 991.8 hPa NW 19.3 km/h 29 km/h 76 % 0 mm
07:59 15.8 °C 11.3 °C 992.1 hPa NNW 18.5 km/h 12.9 km/h 75 % 0 mm
08:00 16.3 °C 12.1 °C 991.8 hPa NW 20.9 km/h 30.6 km/h 76 % 0 mm
08:04 15.8 °C 11.2 °C 992.1 hPa NNW 22.5 km/h 13.8 km/h 74 % 0 mm
08:05 16.4 °C 12.3 °C 991.8 hPa NW 19.3 km/h 29 km/h 77 % 0 mm
08:09 16.1 °C 11.6 °C 992.1 hPa NNW 18.5 km/h 10 km/h 75 % 0 mm
08:10 16.4 °C 12.3 °C 991.8 hPa NW 16.1 km/h 30.6 km/h 77 % 0 mm
08:14 16.3 °C 11.6 °C 992.1 hPa NW 22.5 km/h 16.3 km/h 74 % 0 mm
08:15 16.3 °C 12.3 °C 991.8 hPa NW 16.1 km/h 33.8 km/h 77 % 0 mm
08:19 16.2 °C 11.3 °C 992.1 hPa NW 24.1 km/h 16.4 km/h 73 % 0 mm
08:20 16.3 °C 12.4 °C 991.8 hPa NW 16.1 km/h 27.4 km/h 78 % 0 mm
08:24 16.1 °C 11.4 °C 992.1 hPa NW 20.4 km/h 17.4 km/h 74 % 0 mm
08:25 16.1 °C 12.7 °C 991.8 hPa NNW 16.1 km/h 30.6 km/h 80 % 0 mm
08:29 16 °C 11.4 °C 992.1 hPa NW 18.5 km/h 12.6 km/h 74 % 0 mm
08:30 15.9 °C 12.6 °C 991.8 hPa NNW 14.5 km/h 27.4 km/h 81 % 0 mm
08:34 16.1 °C 11.4 °C 992.1 hPa North 18.5 km/h 10.1 km/h 74 % 0 mm
08:35 15.5 °C 12.8 °C 991.8 hPa NNW 9.7 km/h 25.7 km/h 84 % 0.25 mm
08:39 16.2 °C 11.5 °C 992.1 hPa NNW 18.5 km/h 11.4 km/h 74 % 0 mm
08:40 15.2 °C 12.9 °C 991.8 hPa NNW 9.7 km/h 22.5 km/h 86 % 0.51 mm
08:44 16.2 °C 11.5 °C 992.1 hPa NNW 31.5 km/h 31.5 km/h 74 % 0 mm
08:45 15 °C 12.8 °C 992.1 hPa NW 12.9 km/h 22.5 km/h 87 % 0.76 mm
08:49 16.2 °C 11.6 °C 992.1 hPa NW 16.7 km/h 12.9 km/h 74 % 0 mm
08:50 14.9 °C 12.9 °C 992.1 hPa NW 8 km/h 22.5 km/h 88 % 0.51 mm
08:54 16.5 °C 11.7 °C 992.1 hPa NW 24.1 km/h 14.8 km/h 73 % 0 mm
08:55 14.8 °C 13.1 °C 991.8 hPa NW 8 km/h 12.9 km/h 89 % 0 mm
08:59 16.6 °C 11.6 °C 992.1 hPa WNW 22.2 km/h 14.2 km/h 72 % 0.25 mm
09:00 14.9 °C 12.9 °C 992.1 hPa NW 12.9 km/h 32.2 km/h 88 % 0 mm
09:04 16.7 °C 11.7 °C 992.4 hPa NW 22.5 km/h 13.8 km/h 72 % 0.25 mm
09:05 15 °C 12.3 °C 992.1 hPa NW 27.4 km/h 35.4 km/h 84 % 0 mm
09:09 16.5 °C 11.7 °C 992.8 hPa WNW 31.5 km/h 27.7 km/h 73 % 0.25 mm
09:10 15.3 °C 12.4 °C 992.1 hPa NW 19.3 km/h 35.4 km/h 83 % 0 mm
09:14 16.2 °C 11.7 °C 992.8 hPa NW 25.9 km/h 16.9 km/h 75 % 0.25 mm
09:15 15.5 °C 12.3 °C 992.1 hPa NW 20.9 km/h 46.7 km/h 81 % 0 mm
09:19 15.8 °C 11.8 °C 993.1 hPa WNW 35.2 km/h 19.2 km/h 77 % 0.25 mm
09:20 15.6 °C 12.3 °C 992.1 hPa NW 14.5 km/h 30.6 km/h 81 % 0 mm
09:24 15.3 °C 12.4 °C 993.1 hPa WNW 16.1 km/h 11.3 km/h 83 % 0.25 mm
09:25 15.6 °C 12.3 °C 992.1 hPa NW 11.3 km/h 27.4 km/h 81 % 0 mm
09:29 15 °C 11.9 °C 993.5 hPa West 29.6 km/h 20.4 km/h 82 % 0.25 mm
09:30 15.6 °C 12.3 °C 992.1 hPa NW 20.9 km/h 30.6 km/h 81 % 0 mm
09:34 14.2 °C 10.8 °C 994.1 hPa SW 31.5 km/h 17.7 km/h 80 % 0.25 mm
09:35 15.7 °C 12.1 °C 992.1 hPa NW 19.3 km/h 33.8 km/h 79 % 0 mm
09:39 12.6 °C 9.8 °C 994.1 hPa SW 31.5 km/h 18.3 km/h 83 % 0.25 mm
09:40 15.9 °C 12.1 °C 992.1 hPa NW 16.1 km/h 30.6 km/h 78 % 0 mm
09:44 12.1 °C 9.8 °C 994.1 hPa SSW 31.5 km/h 16.3 km/h 86 % 0.25 mm
09:45 15.9 °C 11.9 °C 992.1 hPa NW 14.5 km/h 30.6 km/h 77 % 0 mm
09:49 11.9 °C 9.8 °C 994.5 hPa WSW 22.2 km/h 7.7 km/h 87 % 0.25 mm
09:50 15.9 °C 11.9 °C 992.1 hPa NW 14.5 km/h 30.6 km/h 77 % 0 mm
09:54 11.8 °C 9.7 °C 994.5 hPa WSW 19.3 km/h 17.7 km/h 87 % 0.25 mm
09:55 15.9 °C 11.4 °C 992.1 hPa NW 16.1 km/h 29 km/h 75 % 0 mm
09:59 11.9 °C 9.9 °C 994.5 hPa WSW 16.7 km/h 11.4 km/h 88 % 0 mm
10:00 15.8 °C 11.4 °C 992.1 hPa WNW 12.9 km/h 25.7 km/h 75 % 0 mm
10:04 12 °C 10.1 °C 994.8 hPa SSW 24.1 km/h 15.8 km/h 88 % 0.25 mm
10:05 15.8 °C 11.2 °C 992.1 hPa NW 14.5 km/h 22.5 km/h 74 % 0 mm
10:09 11.9 °C 10 °C 994.8 hPa SSW 20.4 km/h 16.1 km/h 88 % 0.25 mm
10:10 15.9 °C 11.3 °C 992.1 hPa NW 9.7 km/h 22.5 km/h 74 % 0 mm
10:14 11.8 °C 9.9 °C 995.1 hPa SW 24.1 km/h 16.3 km/h 88 % 0.25 mm
10:15 16.1 °C 11.7 °C 992.1 hPa NW 12.9 km/h 20.9 km/h 75 % 0 mm
10:19 11.4 °C 9.7 °C 995.1 hPa SSW 24.1 km/h 15 km/h 89 % 0.25 mm
10:20 16.2 °C 11.4 °C 992.1 hPa NNW 14.5 km/h 22.5 km/h 73 % 0 mm
10:24 11.3 °C 9.4 °C 995.5 hPa SW 31.5 km/h 18.3 km/h 88 % 0.25 mm
10:25 16.2 °C 11.3 °C 992.1 hPa NW 12.9 km/h 27.4 km/h 73 % 0 mm
10:29 11.1 °C 9.4 °C 995.5 hPa SSW 31.5 km/h 20 km/h 89 % 0.25 mm
10:30 16.1 °C 11.4 °C 992.1 hPa NW 11.3 km/h 22.5 km/h 74 % 0 mm
10:34 11.1 °C 9.3 °C 995.5 hPa WSW 27.8 km/h 14.8 km/h 89 % 0.25 mm
10:35 16 °C 11.4 °C 992.1 hPa NW 11.3 km/h 19.3 km/h 74 % 0 mm
10:39 11.1 °C 9.2 °C 995.5 hPa SW 31.5 km/h 22.2 km/h 88 % 0.25 mm
10:40 16.1 °C 11.4 °C 992.1 hPa NW 14.5 km/h 27.4 km/h 74 % 0 mm
10:44 11.5 °C 9.2 °C 995.5 hPa WSW 38.9 km/h 28.6 km/h 86 % 0.25 mm
10:45 16.2 °C 11.5 °C 992.1 hPa NW 19.3 km/h 30.6 km/h 74 % 0 mm
10:49 12.2 °C 9.4 °C 995.8 hPa SW 31.5 km/h 19.8 km/h 83 % 0.25 mm
10:50 16.2 °C 11.5 °C 992.1 hPa NW 14.5 km/h 30.6 km/h 74 % 0 mm
10:54 12.3 °C 8.9 °C 995.8 hPa SW 31.5 km/h 13 km/h 80 % 0.25 mm
10:55 16.3 °C 11.6 °C 992.1 hPa NW 11.3 km/h 19.3 km/h 74 % 0 mm
10:59 12.1 °C 8.9 °C 995.8 hPa WSW 24.1 km/h 17.4 km/h 81 % 0.25 mm
11:00 16.6 °C 11.7 °C 992.1 hPa NNW 19.3 km/h 29 km/h 73 % 0.25 mm
11:04 11.9 °C 9.1 °C 996.2 hPa West 29 km/h 21.2 km/h 83 % 0 mm
11:05 16.7 °C 11.6 °C 992.4 hPa NW 19.3 km/h 35.4 km/h 72 % 0.25 mm
11:09 11.6 °C 8.8 °C 996.2 hPa SW 24.1 km/h 16.1 km/h 83 % 0 mm
11:10 16.7 °C 11.7 °C 992.4 hPa NW 11.3 km/h 22.5 km/h 72 % 0 mm
11:14 11.7 °C 8.7 °C 996.2 hPa WSW 29.6 km/h 24.3 km/h 82 % 0 mm
11:15 16.4 °C 11.6 °C 992.8 hPa NW 19.3 km/h 40.2 km/h 73 % 0 mm
11:19 11.8 °C 8.6 °C 996.2 hPa WSW 25.9 km/h 17.9 km/h 81 % 0 mm
11:20 16.1 °C 11.8 °C 992.8 hPa WNW 16.1 km/h 27.4 km/h 76 % 0 mm
11:24 11.8 °C 8.4 °C 996.5 hPa SW 29.6 km/h 18.7 km/h 80 % 0 mm
11:25 15.7 °C 11.8 °C 993.1 hPa WNW 19.3 km/h 35.4 km/h 78 % 0 mm
11:29 11.8 °C 8.7 °C 996.5 hPa WSW 22.2 km/h 15 km/h 81 % 0 mm
11:30 15.3 °C 12.1 °C 993.5 hPa WNW 8 km/h 22.5 km/h 81 % 0 mm
11:34 12.1 °C 8.7 °C 996.5 hPa SW 18.5 km/h 19.2 km/h 80 % 0 mm
11:35 15 °C 11.9 °C 993.5 hPa WNW 19.3 km/h 32.2 km/h 82 % 0 mm
11:39 12.6 °C 8.4 °C 996.5 hPa SW 22.2 km/h 16.7 km/h 76 % 0 mm
11:40 13.6 °C 10.1 °C 994.1 hPa WSW 27.4 km/h 33.8 km/h 79 % 0 mm
11:44 12.6 °C 8.3 °C 996.8 hPa WSW 18.5 km/h 12.4 km/h 75 % 0 mm
11:45 12.4 °C 9.8 °C 994.1 hPa SW 22.5 km/h 33.8 km/h 84 % 0 mm
11:49 12.7 °C 8.2 °C 996.8 hPa WSW 25.9 km/h 19.2 km/h 74 % 0 mm
11:50 12 °C 9.7 °C 994.1 hPa SW 12.9 km/h 30.6 km/h 86 % 0 mm
11:54 12.8 °C 8.4 °C 996.8 hPa WNW 27.8 km/h 17.9 km/h 75 % 0 mm
11:55 11.9 °C 9.8 °C 994.5 hPa SW 12.9 km/h 25.7 km/h 87 % 0 mm
11:59 13 °C 8.1 °C 996.8 hPa West 27.8 km/h 26.1 km/h 72 % 0 mm
12:00 11.8 °C 9.7 °C 994.5 hPa SW 8 km/h 27.4 km/h 87 % 0 mm
12:04 13.5 °C 8.3 °C 996.8 hPa West 22.5 km/h 16.9 km/h 71 % 0 mm
12:05 12 °C 10.1 °C 994.5 hPa SW 11.3 km/h 22.5 km/h 88 % 0 mm
12:09 13.5 °C 7.1 °C 996.8 hPa West 31.5 km/h 24.3 km/h 65 % 0 mm
12:10 12 °C 10.1 °C 994.5 hPa SW 19.3 km/h 35.4 km/h 88 % 0.25 mm
12:14 13.3 °C 6.9 °C 996.8 hPa West 24.1 km/h 21.4 km/h 65 % 0 mm
12:15 11.9 °C 9.9 °C 994.8 hPa SW 19.3 km/h 30.6 km/h 88 % 0.25 mm
12:19 13.3 °C 6.8 °C 996.8 hPa West 20.4 km/h 8.5 km/h 65 % 0 mm
12:20 11.7 °C 9.7 °C 995.1 hPa SW 20.9 km/h 27.4 km/h 88 % 0 mm
12:24 13.4 °C 6.9 °C 996.8 hPa West 24.1 km/h 12.9 km/h 65 % 0 mm
12:25 11.4 °C 9.7 °C 995.1 hPa SW 16.1 km/h 29 km/h 89 % 0 mm
12:29 13.2 °C 7 °C 996.8 hPa West 16.7 km/h 12.1 km/h 66 % 0 mm
12:30 11.2 °C 9.3 °C 995.5 hPa SW 19.3 km/h 32.2 km/h 88 % 0 mm
12:34 13.2 °C 6.5 °C 997.2 hPa West 24.1 km/h 15.3 km/h 64 % 0 mm
12:35 11.1 °C 9.4 °C 995.5 hPa SW 22.5 km/h 33.8 km/h 89 % 0 mm
12:39 13.3 °C 7.1 °C 996.8 hPa West 14.8 km/h 2.7 km/h 66 % 0 mm
12:40 11 °C 9.3 °C 995.5 hPa SW 19.3 km/h 30.6 km/h 89 % 0 mm
12:44 13.4 °C 7 °C 996.8 hPa SW 14.8 km/h 11.3 km/h 65 % 0 mm
12:45 11.2 °C 9.3 °C 995.8 hPa WSW 22.5 km/h 30.6 km/h 88 % 0 mm
12:49 13.5 °C 7.1 °C 996.8 hPa West 20.4 km/h 12.2 km/h 65 % 0 mm
12:50 11.7 °C 9.3 °C 995.5 hPa WSW 24.1 km/h 38.6 km/h 85 % 0 mm
12:54 13.8 °C 7.1 °C 996.8 hPa WSW 18.5 km/h 14.8 km/h 64 % 0 mm
12:55 12.3 °C 9.3 °C 995.8 hPa WSW 20.9 km/h 33.8 km/h 82 % 0 mm
12:59 13.8 °C 7.4 °C 996.8 hPa West 22.2 km/h 10.5 km/h 65 % 0 mm
13:00 12.2 °C 8.9 °C 995.8 hPa WSW 25.7 km/h 38.6 km/h 80 % 0 mm
13:04 13.4 °C 7.4 °C 997.2 hPa WSW 24.1 km/h 15.6 km/h 67 % 0 mm
13:05 12 °C 8.8 °C 995.8 hPa WSW 19.3 km/h 33.8 km/h 81 % 0 mm
13:09 13.4 °C 7.7 °C 997.2 hPa WSW 14.8 km/h 13.7 km/h 68 % 0 mm
13:10 11.8 °C 9.1 °C 996.2 hPa WSW 22.5 km/h 35.4 km/h 83 % 0 mm
13:14 13.2 °C 7.4 °C 997.2 hPa SW 18.5 km/h 13 km/h 68 % 0 mm
13:15 11.6 °C 8.8 °C 996.2 hPa WSW 20.9 km/h 38.6 km/h 83 % 0 mm
13:19 13.1 °C 7.6 °C 997.2 hPa SW 11.1 km/h 9 km/h 69 % 0 mm
13:20 11.7 °C 8.5 °C 996.2 hPa WSW 19.3 km/h 33.8 km/h 81 % 0 mm
13:24 13.2 °C 7.6 °C 997.2 hPa West 9.3 km/h 6.8 km/h 69 % 0 mm
13:25 11.7 °C 8.4 °C 996.2 hPa WSW 25.7 km/h 37 km/h 80 % 0 mm
13:29 13.2 °C 7.4 °C 997.2 hPa West 11.1 km/h 9 km/h 68 % 0 mm
13:30 11.8 °C 8.6 °C 996.5 hPa WSW 12.9 km/h 29 km/h 81 % 0 mm
13:34 13.5 °C 7.3 °C 997.2 hPa WSW 16.7 km/h 11.6 km/h 66 % 0 mm
13:35 11.8 °C 8.5 °C 996.5 hPa WSW 16.1 km/h 33.8 km/h 80 % 0 mm
13:39 13.8 °C 7.3 °C 997.2 hPa West 14.8 km/h 10 km/h 65 % 0 mm
13:40 12.2 °C 8.8 °C 996.5 hPa SW 19.3 km/h 25.7 km/h 80 % 0 mm
13:44 13.9 °C 7 °C 997.2 hPa WNW 16.7 km/h 12.9 km/h 63 % 0 mm
13:45 12.6 °C 8.5 °C 996.5 hPa SW 16.1 km/h 35.4 km/h 76 % 0 mm
13:49 14.1 °C 6.4 °C 997.2 hPa North 24.1 km/h 18.8 km/h 60 % 0 mm
13:50 12.6 °C 8.3 °C 996.8 hPa WSW 11.3 km/h 33.8 km/h 75 % 0 mm
13:54 14.1 °C 6.9 °C 997.2 hPa West 14.8 km/h 13.2 km/h 62 % 0 mm
13:55 12.6 °C 8.1 °C 996.8 hPa WSW 16.1 km/h 25.7 km/h 74 % 0 mm
13:59 14.5 °C 6.8 °C 997.2 hPa WSW 18.5 km/h 13.5 km/h 60 % 0 mm
14:00 12.8 °C 8.1 °C 996.8 hPa West 19.3 km/h 29 km/h 73 % 0 mm
14:04 14.8 °C 7.6 °C 997.2 hPa SW 18.5 km/h 9.5 km/h 62 % 0 mm
14:05 13.1 °C 7.9 °C 996.8 hPa West 14.5 km/h 32.2 km/h 71 % 0 mm
14:09 14.7 °C 7.4 °C 997.2 hPa SW 14.8 km/h 14 km/h 62 % 0 mm
14:10 13.6 °C 7.6 °C 996.8 hPa West 20.9 km/h 33.8 km/h 67 % 0 mm
14:14 14.4 °C 7.2 °C 997.2 hPa SW 25.9 km/h 13.7 km/h 62 % 0 mm
14:15 13.4 °C 7 °C 996.8 hPa West 19.3 km/h 33.8 km/h 65 % 0 mm
14:19 14.4 °C 7 °C 997.2 hPa SW 16.7 km/h 11.1 km/h 61 % 0 mm
14:20 13.3 °C 6.9 °C 996.8 hPa West 19.3 km/h 27.4 km/h 65 % 0 mm
14:24 14.4 °C 6 °C 997.5 hPa WSW 29.6 km/h 19.6 km/h 57 % 0 mm
14:25 13.3 °C 7.1 °C 996.8 hPa West 14.5 km/h 25.7 km/h 66 % 0 mm
14:29 14.2 °C 6.5 °C 997.5 hPa West 18.5 km/h 10.9 km/h 60 % 0 mm
14:30 13.3 °C 6.7 °C 996.8 hPa West 19.3 km/h 25.7 km/h 64 % 0 mm
14:34 14.7 °C 6.5 °C 997.2 hPa WSW 22.2 km/h 15 km/h 58 % 0 mm
14:35 13.2 °C 6.8 °C 997.2 hPa West 14.5 km/h 20.9 km/h 65 % 0 mm
14:39 15.2 °C 5.7 °C 997.2 hPa WSW 31.5 km/h 13.4 km/h 53 % 0 mm
14:40 13.2 °C 6.7 °C 997.2 hPa West 8 km/h 24.1 km/h 65 % 0 mm
14:44 16.1 °C 5.4 °C 997.2 hPa WSW 24.1 km/h 15.1 km/h 49 % 0 mm
14:45 13.3 °C 6.9 °C 996.8 hPa West 12.9 km/h 20.9 km/h 65 % 0 mm
14:49 16.8 °C 3.8 °C 997.2 hPa West 35.2 km/h 24.5 km/h 42 % 0 mm
14:50 13.4 °C 7 °C 997.2 hPa WSW 8 km/h 17.7 km/h 65 % 0 mm
14:54 17 °C 4 °C 997.2 hPa West 40.7 km/h 20.4 km/h 42 % 0 mm
14:55 13.6 °C 7.4 °C 996.8 hPa WSW 9.7 km/h 20.9 km/h 66 % 0 mm
14:59 15.9 °C 3.9 °C 997.5 hPa SW 31.5 km/h 27.7 km/h 45 % 0 mm
15:00 13.8 °C 7.3 °C 997.2 hPa West 9.7 km/h 20.9 km/h 65 % 0 mm
15:04 14.9 °C 4.3 °C 997.5 hPa WSW 24.1 km/h 18.5 km/h 49 % 0 mm
15:05 13.7 °C 7.4 °C 997.2 hPa West 22.5 km/h 37 km/h 66 % 0 mm
15:09 14.9 °C 4.6 °C 997.5 hPa WSW 22.2 km/h 12.6 km/h 50 % 0 mm
15:10 13.3 °C 7.6 °C 997.2 hPa WSW 19.3 km/h 29 km/h 68 % 0 mm
15:14 15.3 °C 3.4 °C 997.5 hPa West 25.9 km/h 23.7 km/h 45 % 0 mm
15:15 13.5 °C 7.9 °C 997.2 hPa WSW 12.9 km/h 20.9 km/h 69 % 0 mm
15:19 15.7 °C 3.5 °C 997.5 hPa West 27.8 km/h 22.2 km/h 44 % 0 mm
15:20 13.1 °C 7.6 °C 997.2 hPa WSW 4.8 km/h 19.3 km/h 69 % 0 mm
15:24 16.1 °C 3.8 °C 997.5 hPa WSW 22.5 km/h 17.2 km/h 44 % 0 mm
15:25 13.1 °C 7.6 °C 997.2 hPa SW 9.7 km/h 12.9 km/h 69 % 0 mm
15:29 15.8 °C 3.6 °C 997.9 hPa West 40.7 km/h 25.7 km/h 44 % 0 mm
15:30 13.2 °C 7.6 °C 997.2 hPa WSW 9.7 km/h 16.1 km/h 69 % 0 mm
15:34 15.8 °C 4.2 °C 997.9 hPa SW 42.6 km/h 31.7 km/h 46 % 0 mm
15:35 13.3 °C 7.5 °C 997.2 hPa West 4.8 km/h 16.1 km/h 68 % 0 mm
15:39 14.8 °C 5.3 °C 998.2 hPa WSW 29.6 km/h 15.4 km/h 53 % 0 mm
15:40 13.6 °C 7.1 °C 997.2 hPa West 16.1 km/h 24.1 km/h 65 % 0 mm
15:44 14.1 °C 5.2 °C 998.2 hPa SW 33.3 km/h 24.3 km/h 55 % 0 mm
15:45 13.8 °C 6.9 °C 997.2 hPa West 9.7 km/h 19.3 km/h 63 % 0 mm
15:49 14.5 °C 5.3 °C 998.2 hPa WSW 33.3 km/h 20.6 km/h 54 % 0 mm
15:50 13.9 °C 6.6 °C 996.8 hPa West 8 km/h 17.7 km/h 61 % 0 mm
15:54 15 °C 4.9 °C 997.9 hPa SW 25.9 km/h 10 km/h 51 % 0 mm
15:55 14.1 °C 6.7 °C 997.2 hPa West 19.3 km/h 24.1 km/h 61 % 0 mm
15:59 15.7 °C 4.7 °C 997.9 hPa WSW 22.5 km/h 21.9 km/h 48 % 0 mm
16:00 14.1 °C 6.9 °C 997.2 hPa West 11.3 km/h 22.5 km/h 62 % 0 mm
16:04 15.8 °C 3.2 °C 998.2 hPa WSW 31.5 km/h 25.4 km/h 43 % 0 mm
16:05 14.7 °C 7.2 °C 997.2 hPa West 9.7 km/h 19.3 km/h 61 % 0 mm
16:09 14.8 °C 4.4 °C 998.5 hPa WSW 46.3 km/h 22.7 km/h 50 % 0 mm
16:10 14.8 °C 7.6 °C 997.2 hPa WSW 9.7 km/h 20.9 km/h 62 % 0 mm
16:14 13.2 °C 5.6 °C 998.5 hPa WNW 31.5 km/h 20.9 km/h 60 % 0 mm
16:15 14.6 °C 7.4 °C 997.2 hPa SW 16.1 km/h 29 km/h 62 % 0 mm
16:19 12.9 °C 5.3 °C 998.5 hPa West 38.9 km/h 24.1 km/h 60 % 0 mm
16:20 14.4 °C 6.9 °C 997.2 hPa SW 14.5 km/h 30.6 km/h 61 % 0 mm
16:24 13.2 °C 6.5 °C 998.5 hPa West 31.5 km/h 19.8 km/h 64 % 0 mm
16:25 14.4 °C 6.5 °C 997.2 hPa SW 19.3 km/h 24.1 km/h 59 % 0 mm
16:29 13.9 °C 6.2 °C 998.5 hPa WNW 20.4 km/h 17.5 km/h 60 % 0 mm
16:30 14.2 °C 6.1 °C 997.5 hPa WSW 19.3 km/h 32.2 km/h 58 % 0 mm
16:34 14.5 °C 5.6 °C 998.2 hPa NW 18.5 km/h 13.7 km/h 55 % 0 mm
16:35 14.2 °C 6.8 °C 997.5 hPa WSW 9.7 km/h 19.3 km/h 61 % 0 mm
16:39 15.1 °C 5.3 °C 998.2 hPa NW 13 km/h 9.3 km/h 52 % 0 mm
16:40 14.8 °C 6.4 °C 997.2 hPa WSW 16.1 km/h 29 km/h 57 % 0 mm
16:44 15.6 °C 5.8 °C 998.2 hPa West 22.5 km/h 16.1 km/h 52 % 0 mm
16:45 15.4 °C 5.3 °C 997.2 hPa WSW 22.5 km/h 30.6 km/h 51 % 0 mm
16:49 15.6 °C 4.6 °C 998.2 hPa NW 40.7 km/h 19.8 km/h 48 % 0 mm
16:50 16.4 °C 4.1 °C 997.2 hPa WSW 22.5 km/h 30.6 km/h 44 % 0 mm
16:54 15.4 °C 4.1 °C 998.5 hPa West 24.1 km/h 19.5 km/h 47 % 0 mm
16:55 17.1 °C 4.7 °C 997.2 hPa West 20.9 km/h 35.4 km/h 44 % 0 mm
16:59 15.6 °C 4.6 °C 998.5 hPa WNW 24.1 km/h 17.1 km/h 48 % 0 mm
17:00 16.8 °C 3.8 °C 997.2 hPa West 25.7 km/h 40.2 km/h 42 % 0 mm
17:04 15.7 °C 5 °C 998.2 hPa WSW 24.1 km/h 19.5 km/h 49 % 0 mm
17:05 15.5 °C 3.9 °C 997.5 hPa WSW 29 km/h 37 km/h 46 % 0 mm
17:09 15.6 °C 4.9 °C 998.2 hPa West 20.4 km/h 16.4 km/h 49 % 0 mm
17:10 14.9 °C 4.3 °C 997.5 hPa WSW 16.1 km/h 35.4 km/h 49 % 0 mm
17:14 16.4 °C 4.8 °C 998.5 hPa WNW 25.9 km/h 13.7 km/h 46 % 0 mm
17:15 15.1 °C 4.4 °C 997.5 hPa SW 12.9 km/h 24.1 km/h 49 % 0 mm
17:19 16.9 °C 3.9 °C 998.5 hPa West 30.6 km/h 21.9 km/h 42 % 0 mm
17:20 15.3 °C 2.8 °C 997.5 hPa WSW 19.3 km/h 37 km/h 43 % 0 mm
17:24 17.1 °C 3.4 °C 998.5 hPa West 35.4 km/h 23.2 km/h 40 % 0 mm
17:25 16.1 °C 3.8 °C 997.5 hPa West 22.5 km/h 29 km/h 44 % 0 mm
17:29 17 °C 3.7 °C 998.5 hPa West 24.1 km/h 13 km/h 41 % 0 mm
17:30 15.9 °C 3.9 °C 997.5 hPa WSW 27.4 km/h 40.2 km/h 45 % 0 mm
17:34 16.9 °C 2.2 °C 998.9 hPa West 31.5 km/h 23 km/h 37 % 0 mm
17:35 15.9 °C 3.9 °C 997.9 hPa WSW 25.7 km/h 41.8 km/h 45 % 0 mm
17:39 16.7 °C 1.5 °C 998.9 hPa West 33.3 km/h 20.4 km/h 36 % 0 mm
17:40 15.7 °C 4.7 °C 997.9 hPa WSW 32.2 km/h 41.8 km/h 48 % 0 mm
17:44 16.6 °C 1.8 °C 998.9 hPa West 31.5 km/h 24.6 km/h 37 % 0 mm
17:45 14.7 °C 5.5 °C 997.9 hPa WSW 20.9 km/h 35.4 km/h 54 % 0 mm
17:49 16.4 °C 2 °C 998.9 hPa West 31.5 km/h 18.5 km/h 38 % 0 mm
17:50 14.1 °C 5.2 °C 998.2 hPa SW 11.3 km/h 33.8 km/h 55 % 0 mm
17:54 16.8 °C 2.7 °C 998.9 hPa WNW 22.2 km/h 16.4 km/h 39 % 0 mm
17:55 14.7 °C 4.9 °C 998.2 hPa SW 19.3 km/h 33.8 km/h 52 % 0 mm
17:59 16.9 °C 2.4 °C 999.2 hPa West 25.9 km/h 15.4 km/h 38 % 0 mm
18:00 15.3 °C 5.5 °C 997.9 hPa SW 19.3 km/h 30.6 km/h 52 % 0 mm
18:04 16.7 °C 2.3 °C 999.2 hPa SSW 32.2 km/h 16.7 km/h 38 % 0 mm
18:05 15.7 °C 4.1 °C 997.9 hPa SW 20.9 km/h 29 km/h 46 % 0 mm
18:09 16.1 °C 2.4 °C 999.2 hPa SSW 25.9 km/h 19.3 km/h 40 % 0 mm
18:10 15.6 °C 3.4 °C 998.2 hPa WSW 25.7 km/h 35.4 km/h 44 % 0 mm
18:14 15.9 °C 2.3 °C 999.2 hPa SSW 35.2 km/h 20.6 km/h 40 % 0 mm
18:15 14.4 °C 4.7 °C 998.5 hPa WSW 32.2 km/h 46.7 km/h 52 % 0 mm
18:19 16.2 °C 2.2 °C 999.5 hPa West 27.8 km/h 15 km/h 39 % 0 mm
18:20 12.9 °C 5.3 °C 998.5 hPa West 25.7 km/h 40.2 km/h 60 % 0 mm
18:24 16.5 °C 2.5 °C 999.5 hPa West 24.1 km/h 16.1 km/h 39 % 0 mm
18:25 12.9 °C 5.3 °C 998.5 hPa West 22.5 km/h 38.6 km/h 60 % 0 mm
18:29 16.7 °C 2.6 °C 999.5 hPa West 22.2 km/h 17.2 km/h 39 % 0 mm
18:30 13.3 °C 6.9 °C 998.5 hPa West 16.1 km/h 30.6 km/h 65 % 0 mm
18:34 16.6 °C 2.2 °C 999.5 hPa West 33.3 km/h 22 km/h 38 % 0 mm
18:35 14.1 °C 6.2 °C 998.5 hPa West 12.9 km/h 33.8 km/h 59 % 0 mm
18:39 16.3 °C 2.7 °C 999.5 hPa WSW 24.1 km/h 13.7 km/h 40 % 0 mm
18:40 14.7 °C 5.8 °C 998.2 hPa WNW 9.7 km/h 20.9 km/h 55 % 0 mm
18:44 16.3 °C 3 °C 999.9 hPa SW 20.4 km/h 18 km/h 41 % 0 mm
18:45 15.2 °C 5.7 °C 998.2 hPa NW 8 km/h 22.5 km/h 53 % 0 mm
18:49 16.1 °C 2.4 °C 1000.2 hPa SW 16.7 km/h 8.7 km/h 40 % 0 mm
18:50 15.7 °C 5 °C 998.2 hPa WNW 12.9 km/h 24.1 km/h 49 % 0 mm
18:54 15.7 °C 2.5 °C 1000.2 hPa WSW 31.5 km/h 17.2 km/h 41 % 0 mm
18:55 15.3 °C 4.7 °C 998.5 hPa WNW 22.5 km/h 40.2 km/h 49 % 0 mm
18:59 15.7 °C 2.1 °C 1000.2 hPa WSW 27.8 km/h 20.1 km/h 40 % 0 mm
19:00 15.5 °C 4.5 °C 998.5 hPa West 20.9 km/h 27.4 km/h 48 % 0 mm
19:04 15.5 °C 1.9 °C 1000.2 hPa West 24.1 km/h 16.9 km/h 40 % 0 mm
19:05 15.7 °C 5 °C 998.5 hPa West 16.1 km/h 30.6 km/h 49 % 0 mm
19:09 15.5 °C 1.6 °C 1000.6 hPa WSW 35.2 km/h 21.6 km/h 39 % 0 mm
19:10 15.6 °C 4.9 °C 998.5 hPa West 16.1 km/h 29 km/h 49 % 0 mm
19:14 15.3 °C 2.1 °C 1000.6 hPa West 25.7 km/h 21.1 km/h 41 % 0 mm
19:15 15.8 °C 4.5 °C 998.2 hPa West 20.9 km/h 29 km/h 47 % 0 mm
19:19 15 °C 1.5 °C 1000.6 hPa WSW 24.1 km/h 13.7 km/h 40 % 0 mm
19:20 16.6 °C 4.6 °C 998.5 hPa WNW 14.5 km/h 25.7 km/h 45 % 0 mm
19:24 14.9 °C 1.4 °C 1000.9 hPa West 27.8 km/h 14.2 km/h 40 % 0 mm
19:25 16.9 °C 3.9 °C 998.5 hPa West 19.3 km/h 30.6 km/h 42 % 0 mm
19:29 14.9 °C 1.1 °C 1000.9 hPa West 29.6 km/h 20 km/h 39 % 0 mm
19:30 17.1 °C 3.3 °C 998.5 hPa West 19.3 km/h 35.4 km/h 40 % 0 mm
19:34 14.7 °C 1.2 °C 1000.9 hPa West 24.1 km/h 8.7 km/h 40 % 0 mm
19:35 17.1 °C 3.3 °C 998.9 hPa West 24.1 km/h 33.8 km/h 40 % 0 mm
19:39 14.4 °C 1.6 °C 1000.9 hPa SW 14.8 km/h 6.9 km/h 42 % 0 mm
19:40 16.9 °C 1.7 °C 998.9 hPa West 20.9 km/h 32.2 km/h 36 % 0 mm
19:44 14.1 °C 1.7 °C 1000.9 hPa West 18.5 km/h 11.3 km/h 43 % 0 mm
19:45 16.8 °C 2 °C 998.9 hPa West 20.9 km/h 35.4 km/h 37 % 0 mm
19:49 13.9 °C 1.9 °C 1001.2 hPa WSW 27.8 km/h 8 km/h 44 % 0 mm
19:50 16.5 °C 1.7 °C 998.9 hPa West 22.5 km/h 32.2 km/h 37 % 0 mm
19:54 14 °C 2.2 °C 1001.2 hPa WSW 11.1 km/h 7.2 km/h 45 % 0 mm
19:55 16.4 °C 2 °C 998.9 hPa West 22.5 km/h 33.8 km/h 38 % 0 mm
19:59 14 °C 2.6 °C 1001.2 hPa WSW 11.1 km/h 8.7 km/h 46 % 0 mm
20:00 16.8 °C 2.4 °C 998.9 hPa West 16.1 km/h 25.7 km/h 38 % 0 mm
20:04 13.9 °C 2.4 °C 1001.2 hPa SW 27.8 km/h 15.6 km/h 46 % 0 mm
20:05 16.9 °C 2.5 °C 999.2 hPa West 19.3 km/h 27.4 km/h 38 % 0 mm
20:09 13.8 °C 2.7 °C 1001.6 hPa SW 31.5 km/h 17.1 km/h 47 % 0 mm
20:10 16.5 °C 2.5 °C 999.2 hPa WSW 24.1 km/h 33.8 km/h 39 % 0 mm
20:14 13.7 °C 2.8 °C 1001.6 hPa SW 24.1 km/h 16.4 km/h 48 % 0 mm
20:15 15.9 °C 2.7 °C 999.2 hPa SW 16.1 km/h 29 km/h 41 % 0 mm
20:19 13.5 °C 2.7 °C 1001.6 hPa WSW 17.7 km/h 10.9 km/h 48 % 0 mm
20:20 15.9 °C 2 °C 999.2 hPa SW 19.3 km/h 35.4 km/h 39 % 0 mm
20:24 13.3 °C 2.2 °C 1001.6 hPa West 25.9 km/h 17.4 km/h 47 % 0 mm
20:25 16.3 °C 2.3 °C 999.5 hPa SW 12.9 km/h 27.4 km/h 39 % 0 mm
20:29 13.2 °C 2.2 °C 1001.6 hPa WSW 22.2 km/h 15.3 km/h 47 % 0 mm
20:30 16.6 °C 2.6 °C 999.5 hPa WSW 16.1 km/h 25.7 km/h 39 % 0 mm
20:34 13.1 °C 2.3 °C 1001.9 hPa WSW 18.5 km/h 12.6 km/h 48 % 0 mm
20:35 16.7 °C 2.6 °C 999.5 hPa West 14.5 km/h 25.7 km/h 39 % 0 mm
20:39 12.9 °C 2.1 °C 1001.9 hPa West 18.5 km/h 15.3 km/h 48 % 0 mm
20:40 16.5 °C 2.1 °C 999.5 hPa West 22.5 km/h 33.8 km/h 38 % 0 mm
20:44 12.8 °C 2.1 °C 1001.9 hPa West 18.5 km/h 11.1 km/h 48 % 0 mm
20:45 16.3 °C 2.7 °C 999.9 hPa WSW 14.5 km/h 25.7 km/h 40 % 0 mm
20:49 12.6 °C 1.9 °C 1001.9 hPa West 16.7 km/h 13.5 km/h 48 % 0 mm
20:50 16.2 °C 2.6 °C 999.9 hPa SW 19.3 km/h 27.4 km/h 40 % 0 mm
20:54 12.5 °C 2.1 °C 1001.9 hPa WSW 14.5 km/h 9.3 km/h 49 % 0 mm
20:55 16 °C 2.4 °C 1000.2 hPa SW 19.3 km/h 25.7 km/h 40 % 0 mm
20:59 12.4 °C 1.9 °C 1002.3 hPa West 18.5 km/h 8.7 km/h 49 % 0 mm
21:00 15.7 °C 2.5 °C 1000.2 hPa SW 19.3 km/h 30.6 km/h 41 % 0 mm
21:04 12.4 °C 2.2 °C 1002.3 hPa West 14.8 km/h 9 km/h 50 % 0 mm
21:05 15.7 °C 2.4 °C 1000.2 hPa WSW 19.3 km/h 29 km/h 41 % 0 mm
21:09 12.3 °C 2.2 °C 1002.3 hPa West 9.3 km/h 5.3 km/h 50 % 0 mm
21:10 15.5 °C 1.9 °C 1000.2 hPa WSW 19.3 km/h 35.4 km/h 40 % 0 mm
21:14 12.1 °C 2.3 °C 1002.3 hPa West 11.1 km/h 6.8 km/h 51 % 0 mm
21:15 15.4 °C 1.5 °C 1000.6 hPa WSW 19.3 km/h 35.4 km/h 39 % 0 mm
21:19 11.9 °C 2.1 °C 1002.3 hPa West 11.3 km/h 10.5 km/h 51 % 0 mm
21:20 15.2 °C 1.7 °C 1000.6 hPa West 22.5 km/h 40.2 km/h 40 % 0 mm
21:24 11.9 °C 2.4 °C 1002.6 hPa West 11.1 km/h 6.8 km/h 52 % 0 mm
21:25 15 °C 1.5 °C 1000.6 hPa West 16.1 km/h 30.6 km/h 40 % 0 mm
21:29 11.8 °C 2.5 °C 1002.6 hPa West 5.6 km/h 4.7 km/h 53 % 0 mm
21:30 15 °C 1.8 °C 1000.9 hPa West 12.9 km/h 27.4 km/h 41 % 0 mm
21:34 11.7 °C 2.4 °C 1002.6 hPa West 11.1 km/h 7.2 km/h 53 % 0 mm
21:35 14.9 °C 1.4 °C 1000.9 hPa WSW 14.5 km/h 29 km/h 40 % 0 mm
21:38 11.7 °C 2.4 °C 1002.6 hPa West 11.1 km/h 11.1 km/h 53 % 0 mm
21:40 14.7 °C 1.6 °C 1000.9 hPa WSW 12.9 km/h 24.1 km/h 41 % 0 mm
21:44 11.6 °C 2.6 °C 1002.9 hPa West 9.3 km/h 6.8 km/h 54 % 0 mm
21:45 14.3 °C 1.6 °C 1000.9 hPa WSW 11.3 km/h 17.7 km/h 42 % 0 mm
21:49 11.6 °C 2.6 °C 1002.9 hPa West 9.7 km/h 5.6 km/h 54 % 0 mm
21:50 14.1 °C 2 °C 1001.2 hPa WSW 11.3 km/h 20.9 km/h 44 % 0 mm
21:54 11.4 °C 2.7 °C 1002.9 hPa West 7.4 km/h 7.6 km/h 55 % 0 mm
21:55 13.9 °C 2.2 °C 1001.2 hPa West 4.8 km/h 27.4 km/h 45 % 0 mm
21:59 11.4 °C 2.9 °C 1003.3 hPa West 8 km/h 6 km/h 56 % 0 mm
22:00 11.4 °C 2.9 °C 1003.3 hPa West 9.3 km/h 6.3 km/h 56 % 0 mm
22:05 14 °C 2.6 °C 1001.2 hPa WSW 8 km/h 11.3 km/h 46 % 0 mm
22:09 11.3 °C 3.1 °C 1003.3 hPa West 8 km/h 7.1 km/h 57 % 0 mm
22:10 13.9 °C 2.8 °C 1001.6 hPa SW 12.9 km/h 27.4 km/h 47 % 0 mm
22:14 11.2 °C 3.2 °C 1003.3 hPa West 6.4 km/h 2.9 km/h 58 % 0 mm
22:15 13.8 °C 2.7 °C 1001.6 hPa SW 12.9 km/h 30.6 km/h 47 % 0 mm
22:16 11.1 °C 3.2 °C 1003.6 hPa West 9.7 km/h 3.9 km/h 58 % 0 mm
22:20 13.7 °C 2.8 °C 1001.6 hPa SW 9.7 km/h 24.1 km/h 48 % 0 mm
22:24 10.9 °C 3 °C 1003.6 hPa West 9.3 km/h 9.3 km/h 58 % 0 mm
22:25 13.5 °C 2.7 °C 1001.6 hPa WSW 14.5 km/h 24.1 km/h 48 % 0 mm
22:29 10.9 °C 3.2 °C 1003.6 hPa West 5.6 km/h 4.5 km/h 59 % 0 mm
22:30 13.3 °C 2.2 °C 1001.6 hPa WSW 16.1 km/h 30.6 km/h 47 % 0 mm
22:34 10.8 °C 3.1 °C 1003.6 hPa West 5.6 km/h 5 km/h 59 % 0 mm
22:35 13.2 °C 2.4 °C 1001.6 hPa West 12.9 km/h 25.7 km/h 48 % 0 mm
22:36 10.8 °C 3.1 °C 1003.6 hPa West 5.6 km/h 3.9 km/h 59 % 0 mm
22:40 13.1 °C 2.3 °C 1001.9 hPa West 12.9 km/h 22.5 km/h 48 % 0 mm
22:44 10.6 °C 3.2 °C 1003.9 hPa West 5.6 km/h 5.6 km/h 60 % 0 mm
22:45 12.8 °C 2.1 °C 1001.9 hPa West 19.3 km/h 25.7 km/h 48 % 0 mm
22:49 10.5 °C 3.3 °C 1003.9 hPa West 6.4 km/h 5.5 km/h 61 % 0 mm
22:50 12.7 °C 1.7 °C 1001.9 hPa West 16.1 km/h 20.9 km/h 47 % 0 mm
22:52 10.4 °C 3.4 °C 1003.9 hPa West 5.6 km/h 4.3 km/h 62 % 0 mm
22:55 12.6 °C 1.9 °C 1001.9 hPa West 8 km/h 17.7 km/h 48 % 0 mm
22:59 10.3 °C 3.3 °C 1003.9 hPa West 6.4 km/h 5.6 km/h 62 % 0 mm
23:00 12.4 °C 1.7 °C 1001.9 hPa WSW 12.9 km/h 16.1 km/h 48 % 0 mm
23:04 10.4 °C 3.2 °C 1004.3 hPa West 7.4 km/h 5.1 km/h 61 % 0 mm
23:05 12.4 °C 1.9 °C 1002.3 hPa WSW 14.5 km/h 20.9 km/h 49 % 0 mm
23:09 10.5 °C 3.3 °C 1004.3 hPa West 8 km/h 6.1 km/h 61 % 0 mm
23:10 10.5 °C 3.3 °C 1004.3 hPa West 4.8 km/h 9.7 km/h 61 % 0 mm
23:10 12.3 °C 1.9 °C 1002.3 hPa West 8 km/h 19.3 km/h 49 % 0 mm
23:15 12.2 °C 2.1 °C 1002.3 hPa West 8 km/h 14.5 km/h 50 % 0 mm
23:19 10.9 °C 3 °C 1004.3 hPa WSW 9.3 km/h 5.1 km/h 58 % 0 mm
23:20 12.1 °C 2.3 °C 1002.3 hPa West 4.8 km/h 11.3 km/h 51 % 0 mm
23:24 10.9 °C 2.9 °C 1004.3 hPa WSW 11.1 km/h 6.1 km/h 58 % 0 mm
23:25 12 °C 2.4 °C 1002.6 hPa West 9.7 km/h 12.9 km/h 52 % 0 mm
23:29 10.9 °C 2.9 °C 1004.3 hPa West 13 km/h 8 km/h 58 % 0 mm
23:30 11.9 °C 2.3 °C 1002.6 hPa West 4.8 km/h 11.3 km/h 52 % 0 mm
23:34 10.9 °C 3 °C 1004.3 hPa WSW 9.3 km/h 7.4 km/h 58 % 0 mm
23:35 11.7 °C 2.4 °C 1002.6 hPa West 8 km/h 9.7 km/h 53 % 0 mm
23:39 10.9 °C 3.2 °C 1004.3 hPa WSW 9.3 km/h 4.5 km/h 59 % 0 mm
23:40 11.7 °C 2.4 °C 1002.6 hPa West 4.8 km/h 14.5 km/h 53 % 0 mm
23:44 10.9 °C 3 °C 1004.3 hPa WSW 18.5 km/h 7.9 km/h 58 % 0 mm
23:45 11.7 °C 2.4 °C 1002.9 hPa West 4.8 km/h 11.3 km/h 53 % 0 mm
23:49 11.1 °C 3.1 °C 1004.3 hPa West 13 km/h 8.9 km/h 58 % 0 mm
23:50 11.6 °C 2.6 °C 1002.9 hPa West 4.8 km/h 9.7 km/h 54 % 0 mm
23:54 11.1 °C 3.2 °C 1004.3 hPa West 7.4 km/h 4.3 km/h 58 % 0 mm
23:55 11.6 °C 2.6 °C 1002.9 hPa West 4.8 km/h 11.3 km/h 54 % 0 mm
23:59 11.1 °C 3.4 °C 1004.3 hPa WNW 14.5 km/h 11.3 km/h 59 % 0 mm
Ararat Weather
Compliments of Weather Underground - 3.75 mb
Click here to send mail.


ABOUT

Live weather data from Ararat, Victoria, Australia, 3377
Data uploaded from Cumulus every 5 minutes to Weather Underground.
This site then downloads the raw data for formatting and display.
Metric and imperial data can be displayed. Graphs and historical data available.
Includes Sun and Moon times and rain image live from BOM.

Check out Ararat Weather on Facebook, Twitter and Google +

Help support ongoing costs by checking out the ads





Follow @AraratWeather